Time;durP1;ratioP1;P1;durP2;ratioP2;P2;SDS_P1;SDS_P2;PMS_P1;PMS_P2;Temp;Humidity;BMP_temperature;BMP_pressure;BME280_temperature;BME280_humidity;BME280_pressure;Samples;Min_cycle;Max_cycle;Signal;HPM_P1;HPM_P2
2022/05/31 00:00:08;;;;;;;1.98;1.30;;;19.50;82.20;;;;;;5075566;28;20051;-63
2022/05/31 00:02:34;;;;;;;3.35;1.50;;;19.50;82.20;;;;;;5043958;28;20109;-63
2022/05/31 00:04:59;;;;;;;2.55;1.30;;;19.50;82.20;;;;;;5067528;28;20493;-64
2022/05/31 00:07:25;;;;;;;2.90;1.50;;;19.60;82.40;;;;;;5076072;28;20044;-62
2022/05/31 00:09:51;;;;;;;4.60;1.25;;;19.60;79.40;;;;;;5101643;28;20067;-67
2022/05/31 00:12:17;;;;;;;2.45;1.27;;;19.60;82.30;;;;;;5075548;28;20048;-70
2022/05/31 00:14:42;;;;;;;2.10;1.27;;;19.50;79.30;;;;;;5106329;28;20044;-63
2022/05/31 00:17:08;;;;;;;2.30;1.40;;;19.60;82.20;;;;;;5092063;28;20083;-63
2022/05/31 00:19:34;;;;;;;3.13;1.30;;;19.60;79.00;;;;;;5093754;28;20101;-64
2022/05/31 00:22:10;;;;;;;3.10;1.35;;;19.40;79.40;;;;;;5091321;28;20052;-63
2022/05/31 00:24:37;;;;;;;2.10;1.20;;;19.50;78.30;;;;;;5087998;28;20420;-63
2022/05/31 00:27:04;;;;;;;2.65;1.30;;;19.30;79.20;;;;;;5082002;28;20051;-62
2022/05/31 00:29:30;;;;;;;2.58;1.30;;;19.40;82.20;;;;;;5075627;28;20543;-62
2022/05/31 00:31:57;;;;;;;3.05;1.55;;;19.40;79.40;;;;;;5104911;28;20055;-62
2022/05/31 00:34:22;;;;;;;5.10;1.60;;;19.60;82.10;;;;;;5080027;28;20446;-65
2022/05/31 00:36:49;;;;;;;2.55;1.40;;;19.40;79.30;;;;;;5065154;28;20044;-64
2022/05/31 00:39:14;;;;;;;3.25;1.50;;;19.30;82.00;;;;;;5062787;28;20035;-67
2022/05/31 00:41:41;;;;;;;4.70;1.60;;;19.20;82.00;;;;;;5064223;28;20117;-65
2022/05/31 00:44:09;;;;;;;1.95;1.40;;;19.60;79.50;;;;;;5070043;28;20455;-61
2022/05/31 00:46:50;;;;;;;3.17;1.40;;;19.30;82.00;;;;;;5079280;28;20048;-62
2022/05/31 00:49:40;;;;;;;3.15;1.50;;;19.60;82.20;;;;;;5079614;28;20052;-62
2022/05/31 00:52:29;;;;;;;3.60;1.92;;;19.40;82.10;;;;;;5057222;28;20043;-62
2022/05/31 00:55:00;;;;;;;3.17;1.80;;;19.70;82.40;;;;;;5097443;28;20052;-62
2022/05/31 00:57:27;;;;;;;3.40;1.70;;;19.40;82.50;;;;;;5082541;28;20040;-63
2022/05/31 00:59:56;;;;;;;2.22;1.45;;;19.20;81.90;;;;;;5079475;28;20043;-62
2022/05/31 01:02:22;;;;;;;3.88;1.70;;;19.60;82.40;;;;;;5084190;28;20055;-62
2022/05/31 01:04:55;;;;;;;3.10;1.60;;;19.40;82.40;;;;;;5091173;28;20392;-62
2022/05/31 01:07:21;;;;;;;5.95;2.17;;;19.20;82.20;;;;;;5069850;28;20051;-62
2022/05/31 01:09:47;;;;;;;3.42;1.58;;;19.40;79.00;;;;;;5060946;28;20039;-62
2022/05/31 01:12:13;;;;;;;2.05;1.48;;;19.10;81.90;;;;;;5079233;28;20047;-61
2022/05/31 01:14:41;;;;;;;4.97;1.73;;;19.50;79.50;;;;;;5055786;28;20052;-62
2022/05/31 01:17:16;;;;;;;2.05;1.52;;;19.40;82.00;;;;;;5060575;28;20047;-62
2022/05/31 01:19:57;;;;;;;2.53;1.73;;;19.30;79.40;;;;;;5081846;28;20052;-63
2022/05/31 01:22:50;;;;;;;3.30;1.83;;;19.50;82.30;;;;;;5079281;28;20055;-63
2022/05/31 01:25:21;;;;;;;;;;;19.20;79.80;;;;;;5005809;28;20054;-62
2022/05/31 01:28:23;;;;;;;3.92;1.80;;;19.30;78.40;;;;;;4998387;28;19922;-62
2022/05/31 01:30:56;;;;;;;3.90;1.98;;;19.10;78.40;;;;;;4998431;28;20089;-62
2022/05/31 01:33:22;;;;;;;4.03;1.73;;;19.20;82.10;;;;;;4981934;28;20054;-62
2022/05/31 01:35:48;;;;;;;3.63;1.92;;;19.30;82.50;;;;;;4996601;28;20049;-62
2022/05/31 01:38:22;;;;;;;3.60;1.73;;;19.10;82.10;;;;;;4997546;28;20046;-62
2022/05/31 01:41:09;;;;;;;2.90;1.50;;;19.10;78.00;;;;;;4966975;28;20108;-63
2022/05/31 01:43:34;;;;;;;3.45;1.73;;;19.30;82.20;;;;;;4969308;28;20058;-61
2022/05/31 01:46:08;;;;;;;3.90;2.22;;;19.40;79.40;;;;;;5005954;28;20042;-62
2022/05/31 01:48:34;;;;;;;3.05;1.80;;;19.30;82.20;;;;;;5013744;28;20078;-62
2022/05/31 01:51:00;;;;;;;3.72;1.77;;;19.20;82.20;;;;;;4997140;28;20080;-62
2022/05/31 01:53:26;;;;;;;2.03;1.38;;;19.40;79.40;;;;;;4994701;28;20496;-63
2022/05/31 01:55:51;;;;;;;3.47;1.77;;;19.10;82.20;;;;;;4962213;28;20444;-62
2022/05/31 01:58:22;;;;;;;2.97;1.80;;;19.30;82.40;;;;;;4979940;28;20050;-62
2022/05/31 02:00:48;;;;;;;3.80;1.80;;;19.30;82.20;;;;;;4997610;28;20046;-62
2022/05/31 02:03:16;;;;;;;3.70;2.05;;;19.20;82.20;;;;;;5073573;28;20066;-63
2022/05/31 02:05:46;;;;;;;3.67;1.85;;;19.30;79.50;;;;;;5057900;28;20114;-62
2022/05/31 02:08:12;;;;;;;3.25;1.83;;;19.30;82.20;;;;;;5086356;28;21058;-62
2022/05/31 02:10:39;;;;;;;4.00;1.92;;;19.20;79.30;;;;;;5095904;28;20040;-62
2022/05/31 02:13:05;;;;;;;2.88;1.65;;;;;;;;;;5096038;28;20449;-62
2022/05/31 02:15:32;;;;;;;3.20;1.90;;;19.30;79.40;;;;;;5077836;28;20409;-66
2022/05/31 02:17:57;;;;;;;3.53;2.00;;;19.30;79.40;;;;;;5082073;28;20043;-67
2022/05/31 02:20:23;;;;;;;3.10;1.90;;;19.20;82.50;;;;;;5085969;28;20048;-67
2022/05/31 02:22:49;;;;;;;3.13;1.70;;;19.30;82.10;;;;;;5087119;28;20044;-67
2022/05/31 02:25:14;;;;;;;3.55;1.85;;;19.20;82.10;;;;;;5090843;28;20040;-66
2022/05/31 02:27:40;;;;;;;2.65;1.63;;;19.30;79.20;;;;;;5080941;28;20054;-66
2022/05/31 02:30:06;;;;;;;2.60;1.63;;;19.30;82.10;;;;;;5076504;28;20052;-67
2022/05/31 02:32:32;;;;;;;3.20;2.08;;;19.20;82.30;;;;;;5074194;28;20052;-62
2022/05/31 02:34:58;;;;;;;3.08;1.65;;;19.10;79.20;;;;;;5074681;28;20382;-62
2022/05/31 02:37:24;;;;;;;4.47;2.00;;;18.90;81.90;;;;;;5075878;28;20036;-63
2022/05/31 02:39:50;;;;;;;3.22;1.83;;;18.90;79.20;;;;;;5082871;28;20051;-63
2022/05/31 02:42:16;;;;;;;4.47;2.00;;;19.30;82.20;;;;;;5090581;28;20041;-62
2022/05/31 02:44:42;;;;;;;5.35;1.73;;;19.00;82.10;;;;;;5073994;28;20398;-62
2022/05/31 02:47:08;;;;;;;4.30;1.85;;;19.30;82.00;;;;;;5056661;28;20052;-62
2022/05/31 02:49:35;;;;;;;2.85;1.58;;;19.00;81.80;;;;;;5073257;28;20059;-63
2022/05/31 02:52:01;;;;;;;2.75;1.67;;;19.20;82.10;;;;;;5085114;28;20051;-63
2022/05/31 02:54:26;;;;;;;3.35;1.83;;;19.00;79.10;;;;;;5057857;28;20040;-63
2022/05/31 02:56:53;;;;;;;3.90;1.52;;;18.90;81.90;;;;;;5066823;28;20056;-63
2022/05/31 02:59:19;;;;;;;2.90;1.60;;;19.00;82.10;;;;;;5073059;28;20036;-62
2022/05/31 03:01:45;;;;;;;3.50;1.85;;;19.10;81.90;;;;;;5084291;28;20044;-62
2022/05/31 03:04:11;;;;;;;2.80;1.60;;;19.00;81.90;;;;;;5056698;28;20501;-61
2022/05/31 03:06:37;;;;;;;3.47;1.58;;;19.30;79.20;;;;;;5040061;28;20071;-67
2022/05/31 03:09:04;;;;;;;3.33;1.80;;;19.10;79.90;;;;;;5089335;28;20114;-66
2022/05/31 03:11:30;;;;;;;3.15;1.70;;;;;;;;;;5071505;28;20131;-66
2022/05/31 03:14:05;;;;;;;2.15;1.50;;;19.30;77.10;;;;;;5090203;28;20067;-67
2022/05/31 03:16:31;;;;;;;3.25;1.42;;;19.00;79.00;;;;;;5041647;28;20517;-67
2022/05/31 03:19:02;;;;;;;3.33;1.80;;;19.20;81.90;;;;;;5068148;28;20084;-66
2022/05/31 03:21:35;;;;;;;3.53;1.70;;;19.30;78.80;;;;;;5052952;28;20513;-67
2022/05/31 03:24:03;;;;;;;4.70;1.90;;;19.30;78.70;;;;;;5042142;28;20056;-67
2022/05/31 03:26:29;;;;;;;9.25;2.13;;;18.90;79.20;;;;;;5071326;28;20055;-67
2022/05/31 03:28:55;;;;;;;2.50;1.70;;;18.90;79.00;;;;;;5071525;28;20075;-67
2022/05/31 03:31:21;;;;;;;2.88;1.70;;;19.20;82.10;;;;;;5055850;28;20083;-67
2022/05/31 03:33:46;;;;;;;4.07;2.00;;;19.10;79.20;;;;;;5061401;28;20048;-62
2022/05/31 03:36:12;;;;;;;3.35;1.95;;;19.10;82.10;;;;;;5073056;28;20490;-63
2022/05/31 03:38:38;;;;;;;3.50;1.80;;;19.20;79.30;;;;;;5072451;28;20556;-63
2022/05/31 03:41:04;;;;;;;2.85;1.80;;;;;;;;;;5086458;28;20048;-62
2022/05/31 03:43:32;;;;;;;2.70;1.70;;;19.20;82.10;;;;;;5087054;28;20074;-62
2022/05/31 03:45:58;;;;;;;2.53;1.73;;;19.10;79.30;;;;;;5055767;28;20134;-62
2022/05/31 03:48:23;;;;;;;2.90;1.80;;;19.00;82.10;;;;;;5072338;28;20504;-62
2022/05/31 03:51:00;;;;;;;5.30;2.30;;;19.20;82.20;;;;;;5077498;28;20043;-63
2022/05/31 03:53:26;;;;;;;3.08;1.60;;;19.30;82.20;;;;;;5073041;28;20040;-63
2022/05/31 03:55:52;;;;;;;3.92;2.00;;;19.10;82.40;;;;;;5083400;28;20047;-63
2022/05/31 03:58:17;;;;;;;3.58;2.10;;;19.10;82.40;;;;;;5089886;28;20045;-63
2022/05/31 04:00:43;;;;;;;3.72;2.05;;;19.30;82.20;;;;;;5072324;28;20044;-62
2022/05/31 04:03:09;;;;;;;3.85;2.20;;;18.90;82.10;;;;;;5077272;28;20040;-62
2022/05/31 04:05:34;;;;;;;5.60;2.50;;;18.90;82.20;;;;;;5098274;28;20071;-62
2022/05/31 04:08:06;;;;;;;4.18;2.15;;;19.10;77.50;;;;;;5091230;28;20417;-62
2022/05/31 04:10:32;;;;;;;4.33;2.43;;;19.20;79.50;;;;;;5093972;28;20040;-67
2022/05/31 04:12:58;;;;;;;4.88;2.00;;;19.10;82.30;;;;;;5075802;28;20094;-68
2022/05/31 04:15:24;;;;;;;5.35;2.60;;;19.00;82.20;;;;;;5094636;28;20044;-68
2022/05/31 04:17:50;;;;;;;5.15;2.03;;;19.00;82.30;;;;;;5075372;28;20516;-67
2022/05/31 04:20:16;;;;;;;4.97;2.30;;;;;;;;;;5076587;28;20048;-68
2022/05/31 04:22:41;;;;;;;4.30;2.40;;;19.00;79.70;;;;;;5104329;28;20561;-68
2022/05/31 04:25:07;;;;;;;3.28;2.10;;;18.90;82.30;;;;;;5113379;28;20119;-68
2022/05/31 04:27:33;;;;;;;5.22;2.53;;;19.00;82.50;;;;;;5108607;28;20040;-68
2022/05/31 04:29:59;;;;;;;4.50;2.60;;;19.10;82.40;;;;;;5075395;28;20102;-68
2022/05/31 04:32:24;;;;;;;4.13;2.35;;;18.90;82.50;;;;;;5076317;28;20409;-68
2022/05/31 04:34:52;;;;;;;4.78;2.35;;;19.00;82.30;;;;;;5058642;28;20058;-68
2022/05/31 04:37:17;;;;;;;5.07;2.53;;;19.10;82.40;;;;;;5093674;28;20079;-69
2022/05/31 04:39:43;;;;;;;6.07;2.17;;;19.20;79.90;;;;;;5113560;28;20086;-70
2022/05/31 04:42:09;;;;;;;4.35;2.10;;;19.20;82.60;;;;;;5113116;28;20043;-68
2022/05/31 04:44:35;;;;;;;5.30;2.65;;;19.10;82.30;;;;;;5113545;28;20040;-68
2022/05/31 04:47:02;;;;;;;4.97;2.78;;;19.20;82.50;;;;;;5096080;28;20055;-68
2022/05/31 04:49:28;;;;;;;5.13;2.72;;;19.20;82.50;;;;;;5092015;28;20505;-69
2022/05/31 04:51:54;;;;;;;4.25;2.25;;;;;;;;;;5064899;28;20052;-68
2022/05/31 04:54:23;;;;;;;4.78;2.72;;;19.00;80.90;;;;;;5074997;28;20374;-67
2022/05/31 04:56:48;;;;;;;4.78;2.58;;;19.30;82.60;;;;;;5068039;28;20374;-69
2022/05/31 04:59:14;;;;;;;4.60;2.55;;;19.00;82.40;;;;;;5111024;28;20047;-67
2022/05/31 05:01:40;;;;;;;4.28;2.55;;;19.10;82.40;;;;;;5057054;28;20055;-67
2022/05/31 05:04:06;;;;;;;5.68;2.88;;;;;;;;;;5077081;28;20040;-67
2022/05/31 05:06:32;;;;;;;4.82;2.55;;;19.10;79.90;;;;;;5075278;28;20414;-69
2022/05/31 05:08:58;;;;;;;5.05;2.60;;;;;;;;;;5046181;28;20044;-68
2022/05/31 05:11:24;;;;;;;5.72;2.75;;;19.40;80.10;;;;;;5093320;28;20055;-67
2022/05/31 05:13:50;;;;;;;5.38;2.45;;;19.30;82.60;;;;;;5078167;28;20381;-68
2022/05/31 05:16:18;;;;;;;5.03;3.03;;;19.20;83.00;;;;;;5058141;28;20051;-67
2022/05/31 05:18:44;;;;;;;4.68;2.40;;;19.10;82.90;;;;;;5074730;28;20055;-68
2022/05/31 05:21:12;;;;;;;3.75;2.50;;;19.30;82.90;;;;;;5065555;28;20036;-66
2022/05/31 05:23:38;;;;;;;6.80;2.50;;;19.10;82.60;;;;;;5061358;28;20051;-66
2022/05/31 05:26:04;;;;;;;5.38;2.40;;;19.20;82.60;;;;;;5080420;28;20044;-66
2022/05/31 05:31:28;;;;;;;4.65;2.42;;;19.10;82.70;;;;;;5094208;28;20527;-66
2022/05/31 05:33:54;;;;;;;3.90;2.20;;;19.10;80.50;;;;;;5097098;28;20055;-67
2022/05/31 05:36:20;;;;;;;4.28;2.40;;;;;;;;;;5096542;28;20553;-67
2022/05/31 05:38:46;;;;;;;4.00;2.28;;;19.30;83.00;;;;;;5096764;28;20037;-62
2022/05/31 05:41:12;;;;;;;4.63;2.45;;;19.50;82.80;;;;;;5054048;28;20493;-62
2022/05/31 05:43:40;;;;;;;4.25;2.58;;;19.00;79.50;;;;;;5058305;28;20044;-62
2022/05/31 05:46:16;;;;;;;5.15;2.65;;;19.30;82.80;;;;;;5096364;28;20043;-63
2022/05/31 05:48:43;;;;;;;5.70;2.42;;;;;;;;;;5078421;28;20055;-63
2022/05/31 05:51:20;;;;;;;4.40;2.40;;;19.50;83.00;;;;;;5097105;28;20046;-62
2022/05/31 05:53:46;;;;;;;4.78;2.45;;;19.20;82.90;;;;;;5096963;28;20055;-62
2022/05/31 05:56:12;;;;;;;5.20;2.50;;;19.30;83.10;;;;;;5061448;28;20052;-64
2022/05/31 05:58:38;;;;;;;4.07;2.40;;;19.40;82.80;;;;;;5073501;28;20127;-62
2022/05/31 06:01:05;;;;;;;4.25;2.33;;;19.30;82.90;;;;;;5061366;28;20144;-63
2022/05/31 06:03:35;;;;;;;4.50;2.53;;;19.50;82.80;;;;;;5065268;28;20048;-62
2022/05/31 06:06:00;;;;;;;5.60;2.30;;;19.40;82.80;;;;;;5094612;28;20091;-61
2022/05/31 06:08:52;;;;;;;6.00;2.70;;;19.50;80.20;;;;;;5082393;28;20078;-63
2022/05/31 06:11:26;;;;;;;4.30;2.30;;;19.50;82.90;;;;;;5088632;28;20055;-62
2022/05/31 06:13:53;;;;;;;4.53;2.55;;;19.50;82.70;;;;;;5079581;28;20533;-62
2022/05/31 06:16:19;;;;;;;4.95;2.55;;;19.40;80.20;;;;;;5066292;28;20040;-62
2022/05/31 06:18:51;;;;;;;5.63;2.75;;;19.70;83.10;;;;;;5061776;28;20044;-62
2022/05/31 06:21:16;;;;;;;6.03;2.53;;;19.40;80.10;;;;;;5082095;28;20165;-62
2022/05/31 06:23:42;;;;;;;4.63;2.72;;;19.50;80.20;;;;;;5112985;28;20068;-62
2022/05/31 06:26:08;;;;;;;4.80;2.42;;;19.60;82.90;;;;;;5080277;28;20124;-62
2022/05/31 06:28:34;;;;;;;4.85;2.35;;;19.60;80.20;;;;;;5097822;28;20043;-63
2022/05/31 06:30:59;;;;;;;3.97;2.35;;;19.40;82.60;;;;;;5113192;28;20043;-64
2022/05/31 06:33:26;;;;;;;4.18;2.40;;;;;;;;;;5095476;28;20138;-64
2022/05/31 06:35:51;;;;;;;5.53;2.60;;;19.60;80.00;;;;;;5095434;28;20448;-64
2022/05/31 06:38:17;;;;;;;6.20;2.42;;;19.60;82.60;;;;;;5099851;28;20036;-63
2022/05/31 06:40:43;;;;;;;5.20;2.70;;;19.60;82.50;;;;;;5089890;28;20119;-64
2022/05/31 06:43:09;;;;;;;4.70;2.50;;;19.80;81.60;;;;;;5096432;28;20496;-74
2022/05/31 06:45:35;;;;;;;6.10;2.63;;;19.70;82.60;;;;;;5058706;28;20138;-64
2022/05/31 06:48:00;;;;;;;5.03;3.10;;;19.90;82.70;;;;;;5060723;28;20052;-67
2022/05/31 06:50:26;;;;;;;6.63;3.20;;;20.00;82.60;;;;;;5043809;28;20040;-67
2022/05/31 06:58:20;;;;;;;10.63;3.20;;;19.80;79.90;;;;;;5094967;28;20048;-67
2022/05/31 07:00:46;;;;;;;5.10;2.88;;;20.20;82.60;;;;;;5079229;28;20543;-68
2022/05/31 07:03:12;;;;;;;5.70;3.17;;;20.00;82.40;;;;;;5106926;28;20063;-66
2022/05/31 07:05:39;;;;;;;8.15;4.00;;;;;;;;;;5103320;28;20048;-67
2022/05/31 07:08:05;;;;;;;4.82;3.20;;;20.20;82.40;;;;;;5115192;28;20131;-67
2022/05/31 07:10:30;;;;;;;8.60;3.47;;;20.30;79.30;;;;;;5096909;28;20100;-67
2022/05/31 07:12:56;;;;;;;6.47;3.28;;;20.50;82.20;;;;;;5113645;28;20040;-66
2022/05/31 07:15:22;;;;;;;6.60;3.03;;;20.20;79.30;;;;;;5074314;28;20412;-67
2022/05/31 07:17:48;;;;;;;5.50;3.30;;;20.40;81.80;;;;;;5094655;28;20044;-67
2022/05/31 07:20:14;;;;;;;5.50;3.47;;;20.60;81.90;;;;;;5094867;28;20044;-67
2022/05/31 07:22:40;;;;;;;7.55;3.40;;;;;;;;;;5079817;28;20123;-68
2022/05/31 07:25:07;;;;;;;5.85;3.40;;;20.90;81.70;;;;;;5102210;28;20054;-70
2022/05/31 07:27:33;;;;;;;5.75;3.08;;;20.80;81.40;;;;;;5076799;28;20080;-67
2022/05/31 07:29:59;;;;;;;6.57;3.30;;;21.00;81.40;;;;;;5094645;28;20137;-68
2022/05/31 07:32:25;;;;;;;5.50;3.33;;;21.00;81.20;;;;;;5076487;28;20040;-67
2022/05/31 07:34:51;;;;;;;6.70;3.30;;;;;;;;;;5077115;28;20508;-69
2022/05/31 07:37:17;;;;;;;5.93;3.08;;;20.90;81.00;;;;;;5080768;28;20050;-67
2022/05/31 07:39:43;;;;;;;7.72;3.28;;;20.90;78.10;;;;;;5059917;28;20043;-67
2022/05/31 07:42:09;;;;;;;5.53;3.90;;;20.90;80.80;;;;;;5059306;28;20083;-67
2022/05/31 07:44:35;;;;;;;6.00;3.20;;;20.90;77.70;;;;;;5076208;28;20048;-68
2022/05/31 07:47:01;;;;;;;4.88;3.30;;;21.10;80.70;;;;;;5094964;28;20046;-67
2022/05/31 07:49:27;;;;;;;7.38;3.58;;;21.20;80.70;;;;;;5075545;28;20131;-65
2022/05/31 07:51:53;;;;;;;5.97;3.40;;;21.20;80.50;;;;;;5061895;28;20499;-69
2022/05/31 07:54:19;;;;;;;5.85;3.20;;;21.40;80.50;;;;;;5088746;28;20520;-69
2022/05/31 07:56:44;;;;;;;6.88;3.40;;;21.10;77.60;;;;;;5076603;28;20076;-65
2022/05/31 07:59:10;;;;;;;7.75;3.55;;;21.30;80.10;;;;;;5094281;28;20071;-68
2022/05/31 08:01:36;;;;;;;7.70;3.60;;;21.30;79.80;;;;;;5113367;28;20489;-66
2022/05/31 08:04:02;;;;;;;8.43;3.35;;;21.60;79.90;;;;;;5078926;28;20487;-67
2022/05/31 08:06:30;;;;;;;6.20;3.55;;;21.40;79.70;;;;;;5075916;28;20123;-62
2022/05/31 08:08:58;;;;;;;12.68;3.35;;;21.80;79.70;;;;;;5050273;28;20084;-62
2022/05/31 08:11:26;;;;;;;7.07;3.30;;;21.80;79.50;;;;;;5075062;28;20040;-66
2022/05/31 08:13:53;;;;;;;9.45;3.53;;;21.80;79.40;;;;;;5073525;28;20098;-67
2022/05/31 08:16:21;;;;;;;6.25;3.58;;;21.70;76.80;;;;;;5091115;28;20048;-66
2022/05/31 08:18:47;;;;;;;7.28;3.13;;;22.00;79.20;;;;;;5093706;28;20051;-66
2022/05/31 08:21:19;;;;;;;5.50;3.10;;;21.70;76.40;;;;;;5091243;28;20044;-66
2022/05/31 08:23:44;;;;;;;8.03;3.40;;;22.20;78.90;;;;;;5087739;28;20082;-67
2022/05/31 08:26:10;;;;;;;4.97;2.85;;;22.10;76.20;;;;;;5055496;28;20149;-67
2022/05/31 08:28:36;;;;;;;7.07;2.90;;;22.10;75.90;;;;;;5073939;28;20156;-66
2022/05/31 08:31:07;;;;;;;4.80;2.70;;;22.30;78.50;;;;;;5081469;28;20440;-68
2022/05/31 08:33:33;;;;;;;8.85;2.67;;;22.20;78.10;;;;;;5061694;28;20088;-65
2022/05/31 08:35:59;;;;;;;5.18;2.85;;;22.40;78.20;;;;;;5090270;28;20105;-67
2022/05/31 08:38:25;;;;;;;4.85;2.50;;;22.40;75.30;;;;;;5075671;28;20432;-65
2022/05/31 08:41:09;;;;;;;4.93;2.70;;;22.20;77.90;;;;;;5092386;28;20052;-65
2022/05/31 08:43:45;;;;;;;6.13;2.58;;;22.40;74.10;;;;;;5073636;28;20060;-66
2022/05/31 08:46:29;;;;;;;6.50;2.85;;;22.50;73.20;;;;;;5057744;28;20068;-65
2022/05/31 08:49:16;;;;;;;6.63;2.80;;;22.40;73.90;;;;;;5081537;28;20129;-67
2022/05/31 08:51:55;;;;;;;4.60;2.35;;;22.50;77.60;;;;;;5092057;28;20092;-66
2022/05/31 08:57:36;;;;;;;6.43;2.60;;;22.30;77.30;;;;;;5063397;28;20486;-62
2022/05/31 09:00:07;;;;;;;7.45;2.40;;;22.40;77.30;;;;;;5054763;28;20108;-62
2022/05/31 09:02:54;;;;;;;13.50;2.90;;;22.70;77.10;;;;;;5078413;28;20048;-62
2022/05/31 09:05:30;;;;;;;7.10;2.90;;;22.70;72.50;;;;;;5066768;28;20084;-61
2022/05/31 09:08:24;;;;;;;7.25;3.30;;;22.70;72.30;;;;;;5080370;28;20052;-64
2022/05/31 09:10:56;;;;;;;6.80;3.03;;;22.70;76.90;;;;;;5078858;28;20477;-65
2022/05/31 09:13:27;;;;;;;5.75;2.80;;;22.60;76.50;;;;;;5080563;28;20083;-64
2022/05/31 09:15:56;;;;;;;7.38;2.67;;;22.40;76.70;;;;;;5059598;28;20052;-66
2022/05/31 09:18:22;;;;;;;7.47;2.83;;;;;;;;;;5072991;28;20055;-69
2022/05/31 09:20:56;;;;;;;5.40;2.58;;;22.50;73.90;;;;;;5075814;28;20493;-66
2022/05/31 09:23:28;;;;;;;8.45;2.20;;;22.70;77.00;;;;;;5075662;28;20143;-65
2022/05/31 09:26:09;;;;;;;6.82;2.42;;;22.90;77.00;;;;;;5059115;28;20390;-65
2022/05/31 09:28:51;;;;;;;7.68;2.55;;;22.70;77.00;;;;;;5082886;28;20122;-66
2022/05/31 09:31:54;;;;;;;6.13;2.55;;;22.70;74.60;;;;;;5060632;28;20052;-66
2022/05/31 09:34:46;;;;;;;6.32;2.40;;;22.70;73.10;;;;;;5095303;28;20056;-65
2022/05/31 09:37:38;;;;;;;8.13;2.00;;;23.00;77.00;;;;;;5079298;28;20048;-65
2022/05/31 09:40:16;;;;;;;4.68;2.10;;;22.80;76.90;;;;;;5067597;28;20080;-65
2022/05/31 09:43:24;;;;;;;11.20;2.40;;;22.70;73.10;;;;;;5074933;28;20091;-66
2022/05/31 09:46:08;;;;;;;6.32;2.53;;;22.60;76.50;;;;;;5037775;28;20131;-65
2022/05/31 09:48:52;;;;;;;7.28;2.47;;;22.90;76.60;;;;;;5037091;28;20080;-66
2022/05/31 09:51:17;;;;;;;5.15;1.77;;;22.70;76.30;;;;;;5027412;28;20056;-66
2022/05/31 09:59:12;;;;;;;5.45;1.65;;;22.90;72.70;;;;;;5042915;28;20117;-65
2022/05/31 10:01:45;;;;;;;8.18;2.08;;;22.60;76.20;;;;;;5038840;28;20041;-64
2022/05/31 10:04:19;;;;;;;;;;;22.70;73.80;;;;;;5074049;28;20052;-65
2022/05/31 10:06:55;;;;;;;5.95;2.00;;;22.80;76.10;;;;;;5072345;28;20003;-65
2022/05/31 10:09:24;;;;;;;5.47;1.88;;;22.60;72.20;;;;;;5057460;28;20057;-65
2022/05/31 10:11:50;;;;;;;6.85;1.90;;;22.70;76.10;;;;;;5056323;28;20052;-65
2022/05/31 10:14:26;;;;;;;6.72;2.17;;;22.80;76.00;;;;;;5021745;28;20041;-65
2022/05/31 10:16:54;;;;;;;5.35;2.05;;;22.90;76.20;;;;;;5022352;28;20060;-66
2022/05/31 10:19:30;;;;;;;6.60;2.25;;;22.80;76.10;;;;;;5063267;28;20131;-68
2022/05/31 10:21:57;;;;;;;5.57;2.10;;;22.60;75.90;;;;;;5071234;28;20048;-67
2022/05/31 10:24:24;;;;;;;7.18;2.30;;;22.60;75.80;;;;;;5075607;28;20040;-62
2022/05/31 10:27:21;;;;;;;6.05;2.13;;;22.70;75.70;;;;;;5089743;28;20487;-65
2022/05/31 10:29:59;;;;;;;13.25;2.92;;;22.60;75.80;;;;;;5086989;28;20060;-63
2022/05/31 10:32:34;;;;;;;12.15;2.80;;;22.80;71.90;;;;;;5077304;28;20540;-65
2022/05/31 10:35:15;;;;;;;8.98;2.70;;;22.70;74.30;;;;;;5059968;28;20044;-63
2022/05/31 10:38:04;;;;;;;7.45;2.75;;;22.60;75.50;;;;;;5082457;28;20060;-69
2022/05/31 10:40:56;;;;;;;9.43;2.72;;;22.30;71.80;;;;;;5057390;28;20052;-63
2022/05/31 10:43:34;;;;;;;9.40;2.85;;;22.80;72.20;;;;;;5057233;28;20056;-76
2022/05/31 10:46:29;;;;;;;9.48;3.30;;;22.30;75.60;;;;;;5057864;28;20059;-77
2022/05/31 10:48:57;;;;;;;6.45;2.85;;;22.20;75.40;;;;;;5050201;28;20058;-68
2022/05/31 10:52:19;;;;;;;8.48;3.00;;;22.40;75.20;;;;;;5068466;28;20456;-62
2022/05/31 10:54:52;;;;;;;6.72;2.97;;;22.50;75.20;;;;;;5035895;28;20057;-70
2022/05/31 10:57:20;;;;;;;6.20;2.95;;;22.50;71.50;;;;;;5036552;28;20064;-62
2022/05/31 10:59:55;;;;;;;7.75;3.10;;;22.50;75.10;;;;;;5050042;28;20174;-62
2022/05/31 11:02:42;;;;;;;5.95;2.70;;;22.30;75.00;;;;;;5036208;28;20541;-64
2022/05/31 11:05:08;;;;;;;5.00;3.00;;;22.30;75.00;;;;;;5036193;28;20056;-73
2022/05/31 11:13:44;;;;;;;6.38;3.00;;;22.30;74.50;;;;;;5023447;28;20049;-62
2022/05/31 11:16:30;;;;;;;5.35;2.70;;;22.20;74.40;;;;;;5019320;28;20406;-67
2022/05/31 11:19:05;;;;;;;5.18;2.70;;;22.30;74.50;;;;;;5034604;28;20144;-66
2022/05/31 11:21:34;;;;;;;5.35;2.50;;;22.00;70.10;;;;;;5050790;28;20532;-61
2022/05/31 11:24:39;;;;;;;6.75;2.95;;;22.30;74.20;;;;;;5072594;28;22152;-72
2022/05/31 11:27:38;;;;;;;4.68;2.38;;;22.30;69.50;;;;;;4976895;28;20182;-65
2022/05/31 11:30:47;;;;;;;4.50;2.30;;;22.30;73.80;;;;;;4962949;28;20053;-69
2022/05/31 11:33:13;;;;;;;5.30;2.50;;;;;;;;;;4973131;28;20054;-63
2022/05/31 11:35:59;;;;;;;4.95;2.17;;;22.30;73.50;;;;;;4971089;28;20126;-62
2022/05/31 11:38:46;;;;;;;4.20;2.20;;;22.20;69.50;;;;;;4973198;28;20053;-62
2022/05/31 11:41:28;;;;;;;5.80;2.28;;;21.90;68.90;;;;;;4956429;28;20497;-63
2022/05/31 11:44:35;;;;;;;4.28;1.95;;;22.30;73.10;;;;;;4973197;28;20055;-63
2022/05/31 11:47:23;;;;;;;4.63;2.20;;;22.30;73.10;;;;;;4957705;28;20054;-70
2022/05/31 11:50:00;;;;;;;5.95;2.72;;;22.10;73.10;;;;;;4956563;28;20054;-63
2022/05/31 11:53:03;;;;;;;10.07;2.50;;;22.10;73.00;;;;;;4937287;28;20054;-62
2022/05/31 11:55:33;;;;;;;5.25;2.55;;;22.00;72.90;;;;;;4971088;28;20129;-65
2022/05/31 11:58:10;;;;;;;8.32;2.78;;;22.10;72.80;;;;;;4952796;28;20512;-80
2022/05/31 12:01:00;;;;;;;7.82;3.28;;;22.00;72.50;;;;;;4938931;28;20149;-71
2022/05/31 12:03:46;;;;;;;7.55;2.67;;;22.10;72.70;;;;;;4967173;28;20461;-62
2022/05/31 12:06:30;;;;;;;11.75;2.70;;;22.10;69.90;;;;;;5051334;28;20092;-65
2022/05/31 12:09:15;;;;;;;5.38;2.75;;;21.90;72.90;;;;;;5048278;28;20044;-65
2022/05/31 12:11:53;;;;;;;5.85;2.55;;;21.80;73.00;;;;;;5074051;28;20149;-68
2022/05/31 12:14:19;;;;;;;5.63;2.42;;;21.90;70.60;;;;;;5039728;28;20490;-62
2022/05/31 12:16:45;;;;;;;6.18;2.33;;;21.80;73.20;;;;;;5055914;28;20052;-62
2022/05/31 12:19:29;;;;;;;5.13;2.08;;;21.70;70.10;;;;;;5055588;28;20117;-72
2022/05/31 12:22:18;;;;;;;5.15;2.17;;;22.00;73.50;;;;;;5041107;28;20052;-67
2022/05/31 12:24:50;;;;;;;9.75;2.47;;;22.10;73.70;;;;;;5056740;28;20444;-66
2022/05/31 12:27:18;;;;;;;8.35;2.00;;;21.90;69.60;;;;;;5039814;28;20048;-68
2022/05/31 12:29:52;;;;;;;7.03;2.47;;;21.90;73.60;;;;;;5067936;28;20405;-66
2022/05/31 12:32:25;;;;;;;6.35;2.42;;;21.90;69.40;;;;;;5055672;28;20115;-66
2022/05/31 12:34:51;;;;;;;6.47;3.08;;;21.70;73.10;;;;;;5072288;28;20043;-66
2022/05/31 12:37:17;;;;;;;5.75;2.80;;;21.80;73.00;;;;;;5072659;28;20048;-68
2022/05/31 12:39:44;;;;;;;5.30;2.80;;;21.70;73.00;;;;;;5073244;28;20045;-66
2022/05/31 12:42:12;;;;;;;6.13;2.42;;;21.80;73.00;;;;;;5038801;28;20329;-67
2022/05/31 12:44:38;;;;;;;5.45;2.85;;;21.50;71.90;;;;;;5088345;28;20109;-69
2022/05/31 12:47:26;;;;;;;7.93;2.90;;;21.60;72.70;;;;;;5072367;28;20056;-69
2022/05/31 12:50:04;;;;;;;7.40;3.13;;;21.50;73.10;;;;;;5071874;28;20497;-67
2022/05/31 12:55:27;;;;;;;8.20;4.97;;;21.30;69.30;;;;;;5075835;28;20083;-67
2022/05/31 13:00:51;;;;;;;9.23;4.68;;;21.50;72.20;;;;;;5006791;28;20411;-67
2022/05/31 13:03:36;;;;;;;7.93;4.93;;;21.50;67.70;;;;;;5028074;28;20105;-66
2022/05/31 13:06:07;;;;;;;8.20;5.25;;;21.40;68.80;;;;;;5050334;28;20139;-66
2022/05/31 13:08:56;;;;;;;10.75;5.75;;;21.50;72.60;;;;;;5038006;28;20432;-64
2022/05/31 13:20:39;;;;;;;11.00;5.00;;;21.50;72.50;;;;;;5029165;28;20059;-62
2022/05/31 13:23:17;;;;;;;6.95;4.82;;;21.60;72.80;;;;;;5034834;28;20106;-68
2022/05/31 13:25:48;;;;;;;6.68;4.57;;;21.70;72.60;;;;;;5033982;28;20605;-65
2022/05/31 13:28:58;;;;;;;10.80;5.40;;;21.80;72.60;;;;;;5053684;28;20053;-66
2022/05/31 13:31:25;;;;;;;7.15;5.30;;;21.40;72.50;;;;;;5035832;28;20060;-67
2022/05/31 13:34:05;;;;;;;9.30;5.68;;;21.60;72.50;;;;;;5046910;28;20106;-66
2022/05/31 13:36:32;;;;;;;9.95;5.38;;;22.00;70.40;;;;;;5062029;28;20123;-66
2022/05/31 13:39:05;;;;;;;8.95;5.68;;;21.70;72.60;;;;;;5083916;28;20408;-66
2022/05/31 13:41:31;;;;;;;8.35;5.68;;;21.80;69.90;;;;;;5073111;28;20056;-63
2022/05/31 13:43:59;;;;;;;9.18;5.28;;;21.80;72.60;;;;;;5062358;28;20045;-72
2022/05/31 13:46:33;;;;;;;9.45;5.13;;;21.90;72.60;;;;;;5075136;28;20055;-72
2022/05/31 13:49:02;;;;;;;7.43;4.97;;;21.80;72.50;;;;;;5084257;28;20052;-67
2022/05/31 13:51:31;;;;;;;10.30;5.10;;;21.90;69.80;;;;;;5061235;28;20389;-67